Time;durP1;ratioP1;P1;durP2;ratioP2;P2;SDS_P1;SDS_P2;PMS_P1;PMS_P2;Temp;Humidity;BMP_temperature;BMP_pressure;BME280_temperature;BME280_humidity;BME280_pressure;Samples;Min_cycle;Max_cycle;Signal;HPM_P1;HPM_P2
2021/03/29 00:39:36;;;;;;;8.20;3.08;;;;;;;9.13;46.55;99013.16;12159216;23;20115;-79
2021/03/29 00:57:06;;;;;;;6.97;2.75;;;;;;;9.14;46.57;99031.38;12329377;23;20034;-80
2021/03/29 02:35:25;;;;;;;6.22;2.78;;;;;;;9.17;46.42;99031.00;12171332;23;20047;-81
2021/03/29 03:26:20;;;;;;;5.18;2.58;;;;;;;8.75;47.34;99030.53;10754324;23;20047;-79
2021/03/29 03:37:31;;;;;;;6.60;3.00;;;;;;;8.73;47.09;99029.59;10494457;23;20264;-80
2021/03/29 03:49:22;;;;;;;6.10;2.35;;;;;;;8.67;48.08;99029.75;12108311;23;20051;-78
2021/03/29 05:10:12;;;;;;;7.53;1.98;;;;;;;8.94;50.55;99085.16;10744311;23;20063;-81
2021/03/29 05:48:18;;;;;;;7.03;1.92;;;;;;;9.26;51.12;99107.72;12087697;23;20770;31
2021/03/29 06:06:13;;;;;;;10.05;1.80;;;;;;;9.95;50.66;99102.97;10726576;23;20047;-82
2021/03/29 06:11:48;;;;;;;6.18;1.60;;;;;;;11.50;49.31;99102.66;11124335;23;20056;-84
2021/03/29 06:17:23;;;;;;;5.68;1.35;;;;;;;13.86;47.84;99099.25;11032071;23;20036;-83
2021/03/29 06:35:55;;;;;;;6.35;2.40;;;;;;;14.16;42.15;99111.31;11885525;23;20063;-82
2021/03/29 06:41:22;;;;;;;7.95;2.65;;;;;;;13.39;43.67;99114.56;10198790;29;20055;-82
2021/03/29 06:46:42;;;;;;;7.78;2.38;;;;;;;13.57;42.62;99104.03;10153943;29;20047;-80
2021/03/29 06:52:32;;;;;;;8.35;2.90;;;;;;;14.69;43.41;99101.22;10138791;29;20048;-79
2021/03/29 06:58:10;;;;;;;9.35;3.03;;;;;;;16.33;40.92;99097.13;10151995;29;20040;-79
2021/03/29 07:03:30;;;;;;;8.88;2.90;;;;;;;16.93;36.46;99108.09;10151243;29;20107;-79
2021/03/29 07:09:18;;;;;;;5.32;2.22;;;;;;;17.73;38.59;99106.06;10148823;29;20048;-78
2021/03/29 07:14:38;;;;;;;6.07;2.53;;;;;;;20.95;39.03;99110.25;10137782;29;20044;-78
2021/03/29 07:19:58;;;;;;;6.88;2.38;;;;;;;26.23;29.29;99116.69;10149365;29;20096;-79
2021/03/29 07:25:19;;;;;;;6.95;2.47;;;;;;;30.06;26.40;99122.09;10149795;29;20048;-80
2021/03/29 07:30:50;;;;;;;9.52;2.13;;;;;;;37.29;14.11;99133.78;10135811;29;20059;-78
2021/03/29 07:36:10;;;;;;;8.35;2.60;;;;;;;38.16;15.33;99129.16;10136268;29;20052;-78
2021/03/29 07:41:30;;;;;;;7.15;2.58;;;;;;;44.58;8.99;99130.19;10135047;29;20403;-77
2021/03/29 07:46:56;;;;;;;9.15;2.03;;;;;;;38.67;9.16;99122.19;10148601;29;20047;-78
2021/03/29 07:52:42;;;;;;;6.40;1.88;;;;;;;37.06;10.97;99124.72;10161836;29;20040;-79
2021/03/29 07:58:19;;;;;;;8.73;1.90;;;;;;;35.64;10.12;99119.44;10136953;29;20480;-78
2021/03/29 08:03:45;;;;;;;5.93;2.30;;;;;;;39.83;10.97;99124.97;10127927;29;20052;-78
2021/03/29 08:09:05;;;;;;;6.82;2.00;;;;;;;45.52;6.85;99115.06;10083194;29;20049;-79
2021/03/29 08:14:39;;;;;;;8.15;2.28;;;;;;;42.40;6.49;99119.91;10089325;29;20174;-77
2021/03/29 08:20:52;;;;;;;7.50;2.03;;;;;;;37.50;8.07;99114.47;10115874;29;20044;-79
2021/03/29 08:26:22;;;;;;;11.52;2.30;;;;;;;31.94;11.50;99114.94;10130898;29;20044;-77
2021/03/29 08:32:18;;;;;;;7.47;1.55;;;;;;;27.59;13.50;99127.94;10090995;29;20043;-80
2021/03/29 08:37:43;;;;;;;4.85;1.52;;;;;;;25.22;15.27;99125.91;10141846;29;20504;-78
2021/03/29 08:43:06;;;;;;;7.78;2.17;;;;;;;25.24;17.15;99123.81;10115270;29;20044;-79
2021/03/29 08:48:26;;;;;;;6.43;1.80;;;;;;;24.33;17.59;99129.34;10087308;29;20052;-79
2021/03/29 08:53:46;;;;;;;7.03;2.50;;;;;;;26.72;17.42;99140.91;10088294;29;20060;-80
2021/03/29 08:59:07;;;;;;;4.88;2.30;;;;;;;31.68;14.79;99153.78;10086535;29;20044;-81
2021/03/29 09:04:27;;;;;;;6.50;2.00;;;;;;;28.80;14.89;99141.09;10087778;29;20105;-78
2021/03/29 09:09:47;;;;;;;7.40;2.25;;;;;;;27.22;15.60;99149.34;10101490;29;20045;-78
2021/03/29 09:15:14;;;;;;;9.25;2.28;;;;;;;26.77;17.20;99154.66;10110766;29;20041;-81
2021/03/29 09:20:37;;;;;;;7.25;2.75;;;;;;;27.09;16.95;99149.03;10085038;29;20052;-79
2021/03/29 09:26:00;;;;;;;7.07;3.10;;;;;;;25.80;17.46;99164.13;10111555;29;20080;-80
2021/03/29 09:31:26;;;;;;;8.23;3.40;;;;;;;24.72;17.97;99162.81;10101322;29;20511;-80
2021/03/29 09:36:46;;;;;;;6.38;3.42;;;;;;;30.64;17.17;99166.63;10087499;29;20441;-79
2021/03/29 09:42:06;;;;;;;7.93;3.63;;;;;;;35.21;12.35;99168.47;10100462;29;20104;-78
2021/03/29 09:47:28;;;;;;;6.97;3.28;;;;;;;32.67;12.04;99173.66;10087048;29;20081;-79
2021/03/29 09:52:51;;;;;;;7.63;3.92;;;;;;;31.66;12.93;99173.97;10126733;29;20124;-79
2021/03/29 09:58:22;;;;;;;10.07;4.93;;;;;;;29.29;13.47;99156.28;10125733;29;20045;-79
2021/03/29 10:03:59;;;;;;;8.32;4.38;;;;;;;30.77;13.39;99157.41;10112528;29;20044;-79
2021/03/29 10:09:35;;;;;;;10.25;5.00;;;;;;;31.37;11.97;99158.66;10113619;29;20113;-78
2021/03/29 10:15:09;;;;;;;9.80;4.88;;;;;;;31.11;12.85;99155.53;10112004;29;20108;-86
2021/03/29 10:20:30;;;;;;;7.68;4.40;;;;;;;28.61;13.51;99150.81;10126131;29;20408;-90
2021/03/29 10:26:30;;;;;;;9.07;4.07;;;;;;;30.47;13.64;99142.69;10102378;29;20044;-91
2021/03/29 10:31:50;;;;;;;9.85;4.22;;;;;;;34.04;12.79;99136.63;10114295;29;20120;-82
2021/03/29 10:37:28;;;;;;;9.05;3.78;;;;;;;41.26;8.24;99135.13;10112776;29;20052;-86
2021/03/29 10:42:47;;;;;;;8.55;3.55;;;;;;;40.80;7.79;99135.19;10099330;29;20045;-82
2021/03/29 10:48:07;;;;;;;7.03;3.10;;;;;;;37.14;9.26;99124.59;10085037;29;20049;-81
2021/03/29 10:53:27;;;;;;;6.15;2.95;;;;;;;34.70;10.31;99131.19;10097836;29;20041;-84
2021/03/29 10:58:47;;;;;;;7.78;2.88;;;;;;;32.99;10.95;99126.00;10110894;29;20092;-81
2021/03/29 11:04:07;;;;;;;8.03;3.03;;;;;;;32.29;11.83;99130.94;10096990;29;20048;-82
2021/03/29 11:09:27;;;;;;;5.70;3.03;;;;;;;29.98;13.04;99106.88;10109988;29;20328;-82
2021/03/29 11:14:47;;;;;;;7.95;3.20;;;;;;;29.20;13.23;99110.84;10109829;29;20056;-80
2021/03/29 11:20:08;;;;;;;8.30;3.40;;;;;;;28.48;14.28;99106.06;10084323;29;20536;-80
2021/03/29 11:25:27;;;;;;;5.45;2.80;;;;;;;28.50;14.99;99098.22;10109381;29;20048;-81
2021/03/29 11:30:47;;;;;;;8.32;3.33;;;;;;;29.99;14.48;99102.56;10083754;29;20059;-81
2021/03/29 11:36:07;;;;;;;7.70;3.42;;;;;;;29.43;13.92;99106.13;10095878;29;20412;-80
2021/03/29 11:41:27;;;;;;;4.45;1.83;;;;;;;27.42;14.86;99094.59;10109316;29;20044;-80
2021/03/29 11:46:48;;;;;;;6.93;2.40;;;;;;;27.00;15.39;99087.19;10108149;29;20104;-81
2021/03/29 11:52:07;;;;;;;4.13;1.70;;;;;;;26.32;15.91;99092.63;10121700;29;20052;-81
2021/03/29 11:57:27;;;;;;;12.88;2.42;;;;;;;27.26;16.08;99081.34;10108695;29;20049;-80
2021/03/29 12:13:47;;;;;;;5.45;2.70;;;;;;;26.17;16.52;99070.78;10095289;29;20108;-81
2021/03/29 12:19:07;;;;;;;7.93;2.60;;;;;;;25.13;16.62;99064.19;10108147;29;20052;-81
2021/03/29 12:24:30;;;;;;;5.97;2.53;;;;;;;24.03;17.25;99051.97;10095322;29;20048;-82
2021/03/29 12:29:50;;;;;;;7.07;2.88;;;;;;;23.50;18.21;99059.31;10095852;29;20044;-81
2021/03/29 12:35:22;;;;;;;7.63;2.70;;;;;;;24.27;18.29;99067.81;10078808;29;20060;-81
2021/03/29 12:40:44;;;;;;;9.25;2.90;;;;;;;24.91;18.02;99064.94;10107625;29;20045;-87
2021/03/29 12:46:06;;;;;;;10.43;3.55;;;;;;;24.87;18.19;99055.50;10105972;29;20052;-85
2021/03/29 12:51:25;;;;;;;7.63;2.17;;;;;;;24.91;18.32;99047.06;10067534;29;20073;-77
2021/03/29 12:56:45;;;;;;;10.90;3.30;;;;;;;24.01;19.04;99055.47;10082718;29;20105;-80
2021/03/29 13:02:05;;;;;;;12.02;3.35;;;;;;;23.27;19.68;99057.03;10063400;29;20101;-86
2021/03/29 13:07:38;;;;;;;6.75;2.85;;;;;;;22.86;20.05;99061.13;10062831;29;20473;-85
2021/03/29 13:12:58;;;;;;;7.05;3.13;;;;;;;22.72;20.58;99047.03;10079108;29;20052;-84
2021/03/29 13:18:22;;;;;;;12.85;3.05;;;;;;;22.43;20.71;99048.00;10076151;29;20045;-84
2021/03/29 13:23:42;;;;;;;9.15;3.28;;;;;;;21.81;21.40;99052.47;10075573;29;20056;-84
2021/03/29 13:29:02;;;;;;;7.68;2.75;;;;;;;21.49;21.67;99048.16;10075599;29;20041;-80
2021/03/29 13:34:21;;;;;;;9.32;3.13;;;;;;;21.47;22.13;99045.22;10083195;29;20055;-81
2021/03/29 13:39:41;;;;;;;11.05;2.97;;;;;;;21.35;22.72;99043.31;10087289;29;20056;-80
2021/03/29 13:45:01;;;;;;;8.30;3.90;;;;;;;21.07;22.82;99031.34;10125956;29;20481;-81
2021/03/29 13:50:22;;;;;;;9.55;3.10;;;;;;;21.28;23.07;99035.16;10112695;29;20095;-81
2021/03/29 13:55:42;;;;;;;9.23;3.15;;;;;;;21.33;22.90;99043.22;10099568;29;20051;-81
2021/03/29 14:01:02;;;;;;;6.88;3.00;;;;;;;21.41;22.73;99043.56;10125555;29;20520;-80
2021/03/29 14:06:21;;;;;;;8.38;2.60;;;;;;;21.56;22.91;99044.22;10099437;29;20053;-80
2021/03/29 14:11:41;;;;;;;6.88;2.60;;;;;;;21.79;22.88;99043.81;10123890;29;20047;-80
2021/03/29 14:17:01;;;;;;;8.32;2.63;;;;;;;21.67;22.84;99034.75;10111939;29;20048;-81
2021/03/29 14:22:22;;;;;;;7.32;2.50;;;;;;;21.30;23.29;99032.38;10111592;29;20049;-80
2021/03/29 14:27:41;;;;;;;7.95;2.67;;;;;;;21.10;23.39;99029.31;10124582;29;20097;-81
2021/03/29 14:33:02;;;;;;;7.13;2.55;;;;;;;21.18;23.64;99023.28;10085210;29;20056;-80
2021/03/29 14:49:26;;;;;;;6.60;2.65;;;;;;;21.27;24.00;99003.19;10112922;29;20064;-81
2021/03/29 14:54:46;;;;;;;6.15;2.15;;;;;;;21.65;24.08;99000.59;10110795;29;20048;-81
2021/03/29 15:00:09;;;;;;;4.88;1.00;;;;;;;21.70;23.71;98985.91;10110303;29;20045;-82
2021/03/29 15:11:07;;;;;;;2.53;0.80;;;;;;;21.29;23.79;98999.69;10101783;29;19931;-83
2021/03/29 15:16:28;;;;;;;3.80;1.42;;;;;;;21.17;24.16;98996.28;10109839;29;20115;-82
2021/03/29 15:21:48;;;;;;;8.15;1.35;;;;;;;21.00;24.54;98986.28;10109775;29;20044;-82
2021/03/29 15:27:09;;;;;;;5.68;1.17;;;;;;;20.70;24.62;98994.09;10109565;29;20108;-82
2021/03/29 15:32:29;;;;;;;2.85;0.90;;;;;;;20.52;25.00;98989.03;10096043;29;20088;-81
2021/03/29 15:37:49;;;;;;;6.00;1.70;;;;;;;20.17;25.51;98986.59;10108940;29;20052;-81
2021/03/29 15:43:09;;;;;;;5.55;1.40;;;;;;;19.83;25.77;98979.94;10083378;29;20083;-81
2021/03/29 15:48:30;;;;;;;5.10;1.80;;;;;;;19.52;26.00;98979.72;10096026;29;20400;-82
2021/03/29 15:53:49;;;;;;;4.18;1.33;;;;;;;19.32;26.47;98965.25;10108633;29;20055;-83
2021/03/29 15:59:09;;;;;;;3.00;1.00;;;;;;;19.02;26.85;98964.38;10095442;29;20053;-83
2021/03/29 16:04:31;;;;;;;4.60;1.20;;;;;;;18.79;27.09;98963.13;10095550;29;20059;-80
2021/03/29 16:09:51;;;;;;;3.22;1.40;;;;;;;18.75;26.95;98956.53;10096075;29;20503;-78
2021/03/29 16:15:13;;;;;;;5.28;0.93;;;;;;;18.68;27.30;98963.22;10095258;29;20044;-84
2021/03/29 16:20:33;;;;;;;7.22;1.30;;;;;;;18.57;27.51;98967.56;10108901;29;20061;-80
2021/03/29 16:25:55;;;;;;;5.72;1.40;;;;;;;18.40;27.83;98973.66;10095590;29;20487;-89
2021/03/29 16:31:28;;;;;;;3.85;1.13;;;;;;;18.25;28.44;98974.94;10149581;29;20508;-80
2021/03/29 16:36:47;;;;;;;5.07;1.58;;;;;;;18.15;29.11;98974.38;10154425;29;20055;-80
2021/03/29 16:42:07;;;;;;;4.30;1.50;;;;;;;18.03;28.58;98983.59;10141785;29;20059;-84
2021/03/29 16:47:27;;;;;;;5.10;1.65;;;;;;;17.98;29.16;98981.91;10141636;29;20051;-80
2021/03/29 16:52:47;;;;;;;5.38;1.40;;;;;;;17.82;29.56;98971.75;10142460;29;20075;-85
2021/03/29 16:58:10;;;;;;;7.68;2.45;;;;;;;17.63;29.51;98981.94;10050539;29;20498;-82
2021/03/29 17:03:30;;;;;;;6.07;1.98;;;;;;;17.48;29.74;98981.72;10082932;29;20096;-82
2021/03/29 17:08:54;;;;;;;6.68;2.45;;;;;;;17.34;30.17;98975.94;10290636;23;20449;-83
2021/03/29 17:14:15;;;;;;;7.30;2.42;;;;;;;17.19;31.01;98985.66;10135843;24;20064;-81
2021/03/29 17:19:35;;;;;;;7.07;3.08;;;;;;;17.10;30.80;98980.84;10113654;29;20064;-79
2021/03/29 17:24:55;;;;;;;7.88;3.10;;;;;;;17.03;31.56;98981.81;10076930;29;20086;-78
2021/03/29 17:30:16;;;;;;;8.15;2.60;;;;;;;16.96;31.18;98991.97;10109345;29;20052;-79
2021/03/29 17:35:36;;;;;;;6.30;2.72;;;;;;;16.88;31.28;98989.38;10084243;29;20405;-79
2021/03/29 17:40:56;;;;;;;8.95;3.75;;;;;;;16.77;31.56;98992.91;10076769;29;20048;-79
2021/03/29 17:46:27;;;;;;;8.60;3.88;;;;;;;16.61;32.29;98989.06;10691307;23;20509;-79
2021/03/29 17:51:50;;;;;;;5.38;2.58;;;;;;;16.43;32.31;98994.25;10118956;29;20040;-79
2021/03/29 17:57:26;;;;;;;5.78;2.15;;;;;;;16.23;32.66;98993.69;10579967;23;20056;-79
2021/03/29 18:02:46;;;;;;;6.07;2.20;;;;;;;16.09;32.80;98998.38;10159405;29;20045;-79
2021/03/29 18:08:06;;;;;;;8.88;4.22;;;;;;;15.93;33.12;99006.50;10114207;29;20048;-79
2021/03/29 18:13:28;;;;;;;14.18;5.65;;;;;;;15.80;33.52;99009.09;10100276;29;20111;-78
2021/03/29 18:18:48;;;;;;;6.13;2.67;;;;;;;15.60;33.57;99005.63;10131010;29;20049;-78
2021/03/29 18:24:09;;;;;;;7.25;2.58;;;;;;;15.41;34.29;99017.72;10078055;29;20045;-80
2021/03/29 18:29:29;;;;;;;7.45;2.10;;;;;;;15.26;34.32;99026.53;10089066;29;20049;-80
2021/03/29 18:34:48;;;;;;;5.15;1.70;;;;;;;15.14;34.50;99034.84;10090037;29;20405;-80
2021/03/29 18:40:09;;;;;;;6.47;1.73;;;;;;;15.02;34.89;99037.53;10062813;29;20508;-78
2021/03/29 18:45:29;;;;;;;8.00;2.65;;;;;;;14.93;34.93;99052.34;10064098;29;20052;-80
2021/03/29 18:50:49;;;;;;;4.07;2.22;;;;;;;14.86;35.47;99053.25;10111934;29;20096;-79
2021/03/29 19:01:31;;;;;;;7.38;2.10;;;;;;;14.81;35.30;99065.53;10150264;29;20044;-79
2021/03/29 19:06:51;;;;;;;6.90;2.70;;;;;;;14.78;35.83;99069.56;10141991;29;20075;-79
2021/03/29 19:12:12;;;;;;;6.07;2.33;;;;;;;14.75;35.87;99079.16;10136732;29;20547;-80
2021/03/29 19:17:31;;;;;;;6.05;2.15;;;;;;;14.70;36.18;99074.59;10121208;29;20045;-79
2021/03/29 19:22:51;;;;;;;5.05;1.90;;;;;;;14.66;36.45;99068.66;10084875;29;20045;-78
2021/03/29 19:28:13;;;;;;;5.35;1.80;;;;;;;14.70;36.19;99072.50;10071637;29;20132;-78
2021/03/29 19:33:33;;;;;;;8.13;2.03;;;;;;;14.78;36.36;99077.97;10104591;29;20048;-76
2021/03/29 19:38:53;;;;;;;2.67;1.33;;;;;;;14.81;36.47;99079.59;10122632;29;20040;-77
2021/03/29 19:44:14;;;;;;;6.88;1.65;;;;;;;14.79;36.57;99090.69;10109973;29;20040;-77
2021/03/29 19:49:33;;;;;;;3.95;1.52;;;;;;;14.77;36.47;99087.75;10135577;29;20041;-78
2021/03/29 19:54:53;;;;;;;5.88;2.30;;;;;;;14.73;36.51;99096.59;10109632;29;20056;-78
2021/03/29 20:00:16;;;;;;;4.63;1.92;;;;;;;14.67;36.47;99101.03;10096467;29;20404;-79
2021/03/29 20:05:50;;;;;;;5.00;2.10;;;;;;;14.52;36.63;99102.81;10116811;29;20048;-80
2021/03/29 20:11:16;;;;;;;4.63;2.08;;;;;;;14.43;36.95;99102.78;10132657;29;20116;-80
2021/03/29 20:16:37;;;;;;;5.13;1.95;;;;;;;14.26;37.30;99098.03;10144168;29;20567;-79
2021/03/29 20:21:58;;;;;;;7.07;2.20;;;;;;;14.14;37.64;99100.66;10109807;29;20045;-78
2021/03/29 20:27:18;;;;;;;6.18;2.08;;;;;;;14.01;37.57;99103.91;10128541;29;20516;-79
2021/03/29 20:32:37;;;;;;;6.32;2.25;;;;;;;13.91;38.11;99101.06;10111815;29;20045;-79
2021/03/29 20:37:57;;;;;;;5.30;2.42;;;;;;;13.84;38.64;99101.19;10084423;29;20532;-78
2021/03/29 20:43:18;;;;;;;7.22;2.45;;;;;;;13.80;38.56;99090.41;10102325;29;20044;-77
2021/03/29 20:48:41;;;;;;;8.07;2.67;;;;;;;13.68;38.78;99101.41;10095676;29;20051;-78
2021/03/29 20:54:07;;;;;;;8.65;2.35;;;;;;;13.56;38.96;99105.34;10110377;29;20468;-78
2021/03/29 20:59:26;;;;;;;6.35;2.05;;;;;;;13.45;39.11;99098.97;10096029;29;20084;-78
2021/03/29 21:04:46;;;;;;;5.03;2.10;;;;;;;13.37;39.28;99089.16;10107970;29;20041;-78
2021/03/29 21:10:07;;;;;;;5.13;1.83;;;;;;;13.27;39.67;99091.94;10108401;29;20045;-78
2021/03/29 21:15:27;;;;;;;5.07;2.28;;;;;;;13.21;39.75;99099.84;10108549;29;20045;-79
2021/03/29 21:20:47;;;;;;;5.45;1.83;;;;;;;13.15;39.73;99104.97;10113099;29;20385;-78
2021/03/29 21:26:07;;;;;;;5.75;1.60;;;;;;;13.11;39.99;99101.81;10115051;29;20477;-78
2021/03/29 21:31:27;;;;;;;4.35;1.58;;;;;;;13.08;40.38;99108.59;10127619;29;20044;-78
2021/03/29 21:36:49;;;;;;;4.88;1.60;;;;;;;13.03;39.91;99101.22;10127378;29;20472;-78
2021/03/29 21:42:09;;;;;;;3.85;1.80;;;;;;;12.97;40.05;99101.44;10114467;29;20050;-78
2021/03/29 21:47:28;;;;;;;5.57;1.75;;;;;;;12.93;40.32;99111.59;10100770;29;20528;-78
2021/03/29 21:52:49;;;;;;;9.55;1.83;;;;;;;12.86;40.33;99105.50;10113999;29;20049;-78
2021/03/29 21:58:11;;;;;;;5.82;1.55;;;;;;;12.80;40.37;99110.63;10127265;29;20500;-78
2021/03/29 22:03:36;;;;;;;4.88;1.45;;;;;;;12.74;40.78;99103.78;10126353;29;20047;-78
2021/03/29 22:08:58;;;;;;;5.85;1.77;;;;;;;12.70;40.66;99112.59;10113202;29;20048;-79
2021/03/29 22:14:21;;;;;;;5.40;1.65;;;;;;;12.69;40.55;99113.19;10113582;29;20408;-78
2021/03/29 22:19:40;;;;;;;7.70;2.10;;;;;;;12.64;40.80;99114.91;10112404;29;20520;-78
2021/03/29 22:25:00;;;;;;;6.78;2.20;;;;;;;12.59;40.83;99099.84;10099804;29;20051;-79
2021/03/29 22:30:28;;;;;;;4.15;1.30;;;;;;;12.56;41.09;99111.47;10125252;29;20045;-78
2021/03/29 22:41:55;;;;;;;4.95;1.60;;;;;;;12.50;41.05;99113.75;10100596;29;20060;-78
2021/03/29 22:47:16;;;;;;;5.20;2.03;;;;;;;12.43;41.35;99106.16;10127571;29;20052;-78
2021/03/29 22:52:35;;;;;;;4.93;1.67;;;;;;;12.34;41.41;99115.97;10086020;29;20044;-78
2021/03/29 22:57:55;;;;;;;7.00;1.90;;;;;;;12.26;41.45;99118.84;10111441;29;20096;-79
2021/03/29 23:03:15;;;;;;;7.25;1.98;;;;;;;12.20;41.92;99129.53;10124628;29;20118;-78
2021/03/29 23:08:34;;;;;;;4.95;1.50;;;;;;;12.18;41.45;99129.38;10111320;29;20055;-79
2021/03/29 23:13:54;;;;;;;5.60;1.95;;;;;;;12.10;41.47;99134.28;10110857;29;20500;-79
2021/03/29 23:19:14;;;;;;;6.97;1.90;;;;;;;12.00;41.76;99131.41;10124116;29;20044;-78
2021/03/29 23:24:34;;;;;;;5.05;2.00;;;;;;;11.92;42.41;99141.16;10110672;29;20425;-78
2021/03/29 23:29:54;;;;;;;5.32;1.60;;;;;;;11.83;42.31;99139.00;10136592;29;20045;-78
2021/03/29 23:35:14;;;;;;;5.63;2.22;;;;;;;11.76;42.36;99144.03;10097410;29;20055;-78
2021/03/29 23:40:33;;;;;;;5.55;1.67;;;;;;;11.69;42.73;99138.50;10110128;29;20549;-79
2021/03/29 23:45:53;;;;;;;5.25;1.88;;;;;;;11.66;42.68;99145.22;10097152;29;20052;-78
2021/03/29 23:51:12;;;;;;;3.65;1.23;;;;;;;11.60;43.11;99144.72;10110018;29;20041;-78
2021/03/29 23:56:32;;;;;;;4.25;1.50;;;;;;;11.56;42.54;99142.31;10122742;29;20056;-78
